Time,TemperatureF,DewpointF,PressureIn,WindDirection,WindDirectionDegrees,WindSpeedMPH,WindSpeedGustMPH,Humidity,HourlyPrecipIn,Conditions,Clouds,dailyrainin,SolarRadiationWatts/m^2,SoftwareType,DateUTC
2013-03-02 00:01:00,28.0,19.0,-100.00,North,10,1.0,4.0,69,0.00,,,0.00,0.000000,,2013-03-02 08:01:00,
2013-03-02 00:11:00,28.0,19.0,-100.00,North,10,1.0,4.0,69,0.00,,,0.00,0.000000,,2013-03-02 08:11:00,
2013-03-02 00:21:00,28.0,19.0,-100.00,North,10,1.0,4.0,69,0.00,,,0.00,0.000000,,2013-03-02 08:21:00,
2013-03-02 00:31:00,28.0,19.0,-100.00,North,10,1.0,4.0,69,0.00,,,0.00,0.000000,,2013-03-02 08:31:00,
2013-03-02 00:52:00,28.0,19.0,-100.00,NNE,14,0.0,4.0,69,0.00,,,0.00,0.000000,,2013-03-02 08:52:00,
2013-03-02 01:01:00,28.0,19.0,-100.00,NNE,14,0.0,4.0,69,0.00,,,0.00,0.000000,,2013-03-02 09:01:00,
2013-03-02 01:11:00,28.0,19.0,-100.00,NNE,14,0.0,4.0,69,0.00,,,0.00,0.000000,,2013-03-02 09:11:00,
2013-03-02 01:21:00,28.0,19.0,-100.00,NNE,14,0.0,4.0,69,0.00,,,0.00,0.000000,,2013-03-02 09:21:00,
2013-03-02 01:31:00,28.0,19.0,-100.00,NNE,14,0.0,4.0,69,0.00,,,0.00,0.000000,,2013-03-02 09:31:00,
2013-03-02 01:52:00,27.0,18.0,-100.00,North,8,2.0,4.0,69,0.00,,,0.00,0.000000,,2013-03-02 09:52:00,
2013-03-02 02:01:00,27.0,18.0,-100.00,North,8,2.0,4.0,69,0.00,,,0.00,0.000000,,2013-03-02 10:01:00,
2013-03-02 02:15:00,27.0,18.0,-100.00,North,8,2.0,4.0,69,0.00,,,0.00,0.000000,,2013-03-02 10:15:00,
2013-03-02 02:21:00,27.0,18.0,-100.00,North,8,2.0,4.0,69,0.00,,,0.00,0.000000,,2013-03-02 10:21:00,
2013-03-02 02:31:00,27.0,18.0,-100.00,North,8,2.0,4.0,69,0.00,,,0.00,0.000000,,2013-03-02 10:31:00,
2013-03-02 02:52:00,26.0,18.0,-100.00,NNE,13,0.0,4.0,72,0.00,,,0.00,0.000000,,2013-03-02 10:52:00,
2013-03-02 03:01:00,26.0,18.0,-100.00,NNE,13,0.0,4.0,72,0.00,,,0.00,0.000000,,2013-03-02 11:01:00,
2013-03-02 03:11:00,26.0,18.0,-100.00,NNE,13,0.0,4.0,72,0.00,,,0.00,0.000000,,2013-03-02 11:11:00,
2013-03-02 03:21:00,26.0,18.0,-100.00,NNE,13,0.0,4.0,72,0.00,,,0.00,0.000000,,2013-03-02 11:21:00,
2013-03-02 03:31:00,26.0,18.0,-100.00,NNE,13,0.0,4.0,72,0.00,,,0.00,0.000000,,2013-03-02 11:31:00,
2013-03-02 03:52:00,25.0,17.0,-100.00,North,10,0.0,5.0,70,0.00,,,0.00,0.000000,,2013-03-02 11:52:00,
2013-03-02 04:02:00,25.0,17.0,-100.00,North,10,0.0,5.0,70,0.00,,,0.00,0.000000,,2013-03-02 12:02:00,
2013-03-02 04:11:00,25.0,17.0,-100.00,North,10,0.0,5.0,70,0.00,,,0.00,0.000000,,2013-03-02 12:11:00,
2013-03-02 04:21:00,25.0,17.0,-100.00,North,10,0.0,5.0,70,0.00,,,0.00,0.000000,,2013-03-02 12:21:00,
2013-03-02 04:32:00,25.0,17.0,-100.00,North,10,0.0,5.0,70,0.00,,,0.00,0.000000,,2013-03-02 12:32:00,
2013-03-02 05:01:00,25.0,19.0,-100.00,North,8,1.0,4.0,76,0.00,,,0.00,0.000000,,2013-03-02 13:01:00,
2013-03-02 05:11:00,25.0,19.0,-100.00,North,8,1.0,4.0,76,0.00,,,0.00,0.000000,,2013-03-02 13:11:00,
2013-03-02 05:21:00,25.0,19.0,-100.00,North,8,1.0,4.0,76,0.00,,,0.00,0.000000,,2013-03-02 13:21:00,
2013-03-02 05:31:00,25.0,19.0,-100.00,North,8,1.0,4.0,76,0.00,,,0.00,0.000000,,2013-03-02 13:31:00,
2013-03-02 06:01:00,24.0,17.0,-100.00,North,5,1.0,5.0,73,0.00,,,0.00,0.000000,,2013-03-02 14:01:00,
2013-03-02 06:11:00,24.0,17.0,-100.00,North,5,1.0,5.0,73,0.00,,,0.00,0.000000,,2013-03-02 14:11:00,
2013-03-02 06:21:00,24.0,17.0,-100.00,North,5,1.0,5.0,73,0.00,,,0.00,0.000000,,2013-03-02 14:21:00,
2013-03-02 06:31:00,24.0,17.0,-100.00,North,5,1.0,5.0,73,0.00,,,0.00,0.000000,,2013-03-02 14:31:00,
2013-03-02 06:52:00,24.0,18.0,-100.00,North,2,0.0,4.0,76,0.00,,,0.00,2.000000,,2013-03-02 14:52:00,
2013-03-02 07:02:00,24.0,18.0,-100.00,North,2,0.0,4.0,76,0.00,,,0.00,2.000000,,2013-03-02 15:02:00,
2013-03-02 07:11:00,24.0,18.0,-100.00,North,2,0.0,4.0,76,0.00,,,0.00,2.000000,,2013-03-02 15:11:00,
2013-03-02 07:21:00,24.0,18.0,-100.00,North,2,0.0,4.0,76,0.00,,,0.00,2.000000,,2013-03-02 15:21:00,
2013-03-02 07:31:00,24.0,18.0,-100.00,North,2,0.0,4.0,76,0.00,,,0.00,2.000000,,2013-03-02 15:31:00,
2013-03-02 08:01:00,27.0,16.0,-100.00,NNE,13,0.0,4.0,62,0.00,,,-99.99,22.000000,,2013-03-02 16:01:00,
2013-03-02 08:11:00,27.0,16.0,-100.00,NNE,13,0.0,4.0,62,0.00,,,-99.99,22.000000,,2013-03-02 16:11:00,
2013-03-02 08:21:00,27.0,16.0,-100.00,NNE,13,0.0,4.0,62,0.00,,,-99.99,22.000000,,2013-03-02 16:21:00,
2013-03-02 08:52:00,45.0,26.0,-100.00,South,169,0.0,0.0,47,-99.99,,,0.00,234.000000,,2013-03-02 16:52:00,
2013-03-02 09:01:00,45.0,26.0,-100.00,South,169,0.0,0.0,47,-99.99,,,0.00,234.000000,,2013-03-02 17:01:00,
2013-03-02 09:11:00,45.0,26.0,-100.00,South,169,0.0,0.0,47,-99.99,,,0.00,234.000000,,2013-03-02 17:11:00,
2013-03-02 09:21:00,45.0,26.0,-100.00,South,169,0.0,0.0,47,-99.99,,,0.00,234.000000,,2013-03-02 17:21:00,
2013-03-02 09:31:00,45.0,26.0,-100.00,South,169,0.0,0.0,47,-99.99,,,0.00,234.000000,,2013-03-02 17:31:00,
2013-03-02 09:52:00,56.0,20.0,-100.00,SSE,159,1.0,4.0,24,0.00,,,0.00,659.000000,,2013-03-02 17:52:00,
2013-03-02 10:01:00,56.0,20.0,-100.00,SSE,159,1.0,4.0,24,0.00,,,0.00,659.000000,,2013-03-02 18:01:00,
2013-03-02 10:11:00,56.0,20.0,-100.00,SSE,159,1.0,4.0,24,0.00,,,0.00,659.000000,,2013-03-02 18:11:00,
2013-03-02 10:22:00,56.0,20.0,-100.00,SSE,159,1.0,4.0,24,0.00,,,0.00,659.000000,,2013-03-02 18:22:00,
2013-03-02 10:31:00,56.0,20.0,-100.00,SSE,159,1.0,4.0,24,0.00,,,0.00,659.000000,,2013-03-02 18:31:00,
2013-03-02 10:52:00,60.0,7.0,-100.00,SSW,204,4.0,9.0,12,0.00,,,0.00,846.000000,,2013-03-02 18:52:00,
2013-03-02 11:01:00,60.0,7.0,-100.00,SSW,204,4.0,9.0,12,0.00,,,0.00,846.000000,,2013-03-02 19:01:00,
2013-03-02 11:11:00,60.0,7.0,-100.00,SSW,204,4.0,9.0,12,0.00,,,0.00,846.000000,,2013-03-02 19:11:00,
2013-03-02 11:21:00,60.0,7.0,-100.00,SSW,204,4.0,9.0,12,0.00,,,0.00,846.000000,,2013-03-02 19:21:00,
2013-03-02 11:31:00,60.0,7.0,-100.00,SSW,204,4.0,9.0,12,0.00,,,0.00,846.000000,,2013-03-02 19:31:00,
2013-03-02 12:01:00,62.0,11.0,-100.00,SSW,196,4.0,12.0,13,0.00,,,0.00,969.000000,,2013-03-02 20:01:00,
2013-03-02 12:11:00,62.0,11.0,-100.00,SSW,196,4.0,12.0,13,0.00,,,0.00,969.000000,,2013-03-02 20:11:00,
2013-03-02 12:21:00,62.0,11.0,-100.00,SSW,196,4.0,12.0,13,0.00,,,0.00,969.000000,,2013-03-02 20:21:00,
2013-03-02 13:02:00,61.0,17.0,-100.00,NE,52,4.0,12.0,18,0.00,,,0.00,973.000000,,2013-03-02 21:02:00,
2013-03-02 13:11:00,61.0,17.0,-100.00,NE,52,4.0,12.0,18,0.00,,,0.00,973.000000,,2013-03-02 21:11:00,
2013-03-02 13:21:00,61.0,17.0,-100.00,NE,52,4.0,12.0,18,0.00,,,0.00,973.000000,,2013-03-02 21:21:00,
2013-03-02 13:31:00,61.0,17.0,-100.00,NE,52,4.0,12.0,18,0.00,,,0.00,973.000000,,2013-03-02 21:31:00,
2013-03-02 13:52:00,61.0,14.0,-100.00,ENE,73,5.0,12.0,16,0.00,,,0.00,968.000000,,2013-03-02 21:52:00,
2013-03-02 14:01:00,61.0,14.0,-100.00,ENE,73,5.0,12.0,16,0.00,,,0.00,968.000000,,2013-03-02 22:01:00,
2013-03-02 14:11:00,61.0,14.0,-100.00,ENE,73,5.0,12.0,16,0.00,,,0.00,968.000000,,2013-03-02 22:11:00,
2013-03-02 14:21:00,61.0,14.0,-100.00,ENE,73,5.0,12.0,16,0.00,,,0.00,968.000000,,2013-03-02 22:21:00,
2013-03-02 14:31:00,61.0,14.0,-100.00,ENE,73,5.0,12.0,16,0.00,,,0.00,968.000000,,2013-03-02 22:31:00,
2013-03-02 14:52:00,59.0,11.0,-100.00,SSW,196,5.0,12.0,15,0.00,,,0.00,742.000000,,2013-03-02 22:52:00,
2013-03-02 15:01:00,59.0,11.0,-100.00,SSW,196,5.0,12.0,15,0.00,,,0.00,742.000000,,2013-03-02 23:01:00,
2013-03-02 15:11:00,59.0,11.0,-100.00,SSW,196,5.0,12.0,15,0.00,,,0.00,742.000000,,2013-03-02 23:11:00,
2013-03-02 15:21:00,59.0,11.0,-100.00,SSW,196,5.0,12.0,15,0.00,,,0.00,742.000000,,2013-03-02 23:21:00,
2013-03-02 15:31:00,59.0,11.0,-100.00,SSW,196,5.0,12.0,15,0.00,,,0.00,742.000000,,2013-03-02 23:31:00,
2013-03-02 15:52:00,57.0,15.0,-100.00,SSW,197,3.0,10.0,19,0.00,,,0.00,498.000000,,2013-03-02 23:52:00,
2013-03-02 16:02:00,57.0,15.0,-100.00,SSW,197,3.0,10.0,19,0.00,,,0.00,498.000000,,2013-03-03 00:02:00,
2013-03-02 16:11:00,57.0,15.0,-100.00,SSW,197,3.0,10.0,19,0.00,,,0.00,498.000000,,2013-03-03 00:11:00,
2013-03-02 16:22:00,57.0,15.0,-100.00,SSW,197,3.0,10.0,19,0.00,,,0.00,498.000000,,2013-03-03 00:22:00,
2013-03-02 16:31:00,57.0,15.0,-100.00,SSW,197,3.0,10.0,19,0.00,,,0.00,498.000000,,2013-03-03 00:31:00,
2013-03-02 17:01:00,52.0,13.0,-100.00,SSW,208,0.0,8.0,21,0.00,,,-99.99,303.000000,,2013-03-03 01:01:00,
2013-03-02 17:11:00,52.0,13.0,-100.00,SSW,208,0.0,8.0,21,0.00,,,-99.99,303.000000,,2013-03-03 01:11:00,
2013-03-02 17:21:00,52.0,13.0,-100.00,SSW,208,0.0,8.0,21,0.00,,,-99.99,303.000000,,2013-03-03 01:21:00,
2013-03-02 17:31:00,52.0,13.0,-100.00,SSW,208,0.0,8.0,21,0.00,,,-99.99,303.000000,,2013-03-03 01:31:00,
2013-03-02 18:01:00,47.0,16.0,-100.00,North,353,0.0,6.0,29,0.00,,,0.00,78.000000,,2013-03-03 02:01:00,
2013-03-02 18:11:00,47.0,16.0,-100.00,North,353,0.0,6.0,29,0.00,,,0.00,78.000000,,2013-03-03 02:11:00,
2013-03-02 18:21:00,47.0,16.0,-100.00,North,353,0.0,6.0,29,0.00,,,0.00,78.000000,,2013-03-03 02:21:00,
2013-03-02 18:31:00,47.0,16.0,-100.00,North,353,0.0,6.0,29,0.00,,,0.00,78.000000,,2013-03-03 02:31:00,
2013-03-02 18:52:00,42.0,16.0,-100.00,NNW,339,0.0,4.0,34,0.00,,,0.00,4.000000,,2013-03-03 02:52:00,
2013-03-02 19:01:00,42.0,16.0,-100.00,NNW,339,0.0,4.0,34,0.00,,,0.00,4.000000,,2013-03-03 03:01:00,
2013-03-02 19:11:00,42.0,16.0,-100.00,NNW,339,0.0,4.0,34,0.00,,,0.00,4.000000,,2013-03-03 03:11:00,
2013-03-02 19:21:00,42.0,16.0,-100.00,NNW,339,0.0,4.0,34,0.00,,,0.00,4.000000,,2013-03-03 03:21:00,
2013-03-02 19:31:00,42.0,16.0,-100.00,NNW,339,0.0,4.0,34,0.00,,,0.00,4.000000,,2013-03-03 03:31:00,
2013-03-02 19:52:00,37.0,18.0,-100.00,North,11,0.0,4.0,46,0.00,,,0.00,0.000000,,2013-03-03 03:52:00,
2013-03-02 20:01:00,37.0,18.0,-100.00,North,11,0.0,4.0,46,0.00,,,0.00,0.000000,,2013-03-03 04:01:00,
2013-03-02 20:11:00,37.0,18.0,-100.00,North,11,0.0,4.0,46,0.00,,,0.00,0.000000,,2013-03-03 04:11:00,
2013-03-02 20:21:00,37.0,18.0,-100.00,North,11,0.0,4.0,46,0.00,,,0.00,0.000000,,2013-03-03 04:21:00,
2013-03-02 20:31:00,37.0,18.0,-100.00,North,11,0.0,4.0,46,0.00,,,0.00,0.000000,,2013-03-03 04:31:00,
2013-03-02 21:01:00,41.0,20.0,-100.00,North,6,0.0,4.0,43,0.00,,,0.00,0.000000,,2013-03-03 05:01:00,
2013-03-02 21:11:00,41.0,20.0,-100.00,North,6,0.0,4.0,43,0.00,,,0.00,0.000000,,2013-03-03 05:11:00,
2013-03-02 21:22:00,41.0,20.0,-100.00,North,6,0.0,4.0,43,0.00,,,0.00,0.000000,,2013-03-03 05:22:00,
2013-03-02 21:32:00,41.0,20.0,-100.00,North,6,0.0,4.0,43,0.00,,,0.00,0.000000,,2013-03-03 05:32:00,
2013-03-02 22:01:00,41.0,19.0,-100.00,North,357,1.0,5.0,41,0.00,,,0.00,0.000000,,2013-03-03 06:01:00,
2013-03-02 22:11:00,41.0,19.0,-100.00,North,357,1.0,5.0,41,0.00,,,0.00,0.000000,,2013-03-03 06:11:00,
2013-03-02 22:21:00,41.0,19.0,-100.00,North,357,1.0,5.0,41,0.00,,,0.00,0.000000,,2013-03-03 06:21:00,
2013-03-02 22:31:00,41.0,19.0,-100.00,North,357,1.0,5.0,41,0.00,,,0.00,0.000000,,2013-03-03 06:31:00,
2013-03-02 22:52:00,41.0,17.0,-100.00,WNW,287,0.0,6.0,38,0.00,,,0.00,0.000000,,2013-03-03 06:52:00,
2013-03-02 23:01:00,41.0,17.0,-100.00,WNW,287,0.0,6.0,38,0.00,,,0.00,0.000000,,2013-03-03 07:01:00,
2013-03-02 23:11:00,41.0,17.0,-100.00,WNW,287,0.0,6.0,38,0.00,,,0.00,0.000000,,2013-03-03 07:11:00,
2013-03-02 23:21:00,41.0,17.0,-100.00,WNW,287,0.0,6.0,38,0.00,,,0.00,0.000000,,2013-03-03 07:21:00,
2013-03-02 23:31:00,41.0,17.0,-100.00,WNW,287,0.0,6.0,38,0.00,,,0.00,0.000000,,2013-03-03 07:31:00,
2013-03-02 23:52:00,35.0,14.0,-100.00,NNW,345,0.0,6.0,42,0.00,,,0.00,0.000000,,2013-03-03 07:52:00,